sensor_id;sensor_type;location;lat;lon;timestamp;pressure;altitude;pressure_sealevel;temperature;humidity
21096;BME280;10706;49.036;12.112;2023-03-23T00:01:56;97212.31;;;8.46;82.38
21096;BME280;10706;49.036;12.112;2023-03-23T00:04:22;97215.44;;;8.43;82.85
21096;BME280;10706;49.036;12.112;2023-03-23T00:06:50;97218.94;;;8.43;82.78
21096;BME280;10706;49.036;12.112;2023-03-23T00:09:15;97216.34;;;8.48;81.94
21096;BME280;10706;49.036;12.112;2023-03-23T00:11:43;97221.78;;;8.53;82.20
21096;BME280;10706;49.036;12.112;2023-03-23T00:14:10;97219.84;;;8.49;82.47
21096;BME280;10706;49.036;12.112;2023-03-23T00:16:40;97216.00;;;8.56;81.61
21096;BME280;10706;49.036;12.112;2023-03-23T00:19:11;97211.38;;;8.52;82.01
21096;BME280;10706;49.036;12.112;2023-03-23T00:21:42;97209.88;;;8.44;82.73
21096;BME280;10706;49.036;12.112;2023-03-23T00:24:13;97212.19;;;8.41;82.75
21096;BME280;10706;49.036;12.112;2023-03-23T00:26:43;97216.69;;;8.40;83.29
21096;BME280;10706;49.036;12.112;2023-03-23T00:29:17;97209.50;;;8.41;84.00
21096;BME280;10706;49.036;12.112;2023-03-23T00:31:45;97211.38;;;8.40;82.56
21096;BME280;10706;49.036;12.112;2023-03-23T00:34:20;97207.78;;;8.34;83.31
21096;BME280;10706;49.036;12.112;2023-03-23T00:36:49;97209.44;;;8.35;83.78
21096;BME280;10706;49.036;12.112;2023-03-23T00:39:16;97209.09;;;8.32;83.17
21096;BME280;10706;49.036;12.112;2023-03-23T00:41:46;97212.19;;;8.29;83.49
21096;BME280;10706;49.036;12.112;2023-03-23T00:44:13;97210.47;;;8.23;84.38
21096;BME280;10706;49.036;12.112;2023-03-23T00:46:44;97202.72;;;8.21;83.60
21096;BME280;10706;49.036;12.112;2023-03-23T00:49:16;97199.38;;;8.14;83.89
21096;BME280;10706;49.036;12.112;2023-03-23T00:51:43;97194.78;;;8.09;84.15
21096;BME280;10706;49.036;12.112;2023-03-23T00:54:09;97181.25;;;8.11;85.72
21096;BME280;10706;49.036;12.112;2023-03-23T00:56:36;97190.13;;;8.05;85.01
21096;BME280;10706;49.036;12.112;2023-03-23T00:59:02;97192.56;;;8.06;86.46
21096;BME280;10706;49.036;12.112;2023-03-23T01:01:28;97190.13;;;8.05;85.86
21096;BME280;10706;49.036;12.112;2023-03-23T01:03:54;97188.63;;;8.09;86.45
21096;BME280;10706;49.036;12.112;2023-03-23T01:06:27;97192.13;;;8.09;86.23
21096;BME280;10706;49.036;12.112;2023-03-23T01:08:53;97191.75;;;8.17;85.93
21096;BME280;10706;49.036;12.112;2023-03-23T01:11:20;97193.03;;;8.15;86.14
21096;BME280;10706;49.036;12.112;2023-03-23T01:13:46;97188.50;;;8.15;85.88
21096;BME280;10706;49.036;12.112;2023-03-23T01:16:12;97189.88;;;8.18;84.61
21096;BME280;10706;49.036;12.112;2023-03-23T01:18:39;97190.16;;;8.16;84.97
21096;BME280;10706;49.036;12.112;2023-03-23T01:21:11;97183.91;;;8.11;84.71
21096;BME280;10706;49.036;12.112;2023-03-23T01:23:38;97173.84;;;8.13;84.34
21096;BME280;10706;49.036;12.112;2023-03-23T01:26:11;97173.28;;;8.11;85.70
21096;BME280;10706;49.036;12.112;2023-03-23T01:28:37;97179.84;;;8.08;85.71
21096;BME280;10706;49.036;12.112;2023-03-23T01:31:09;97173.16;;;8.06;85.10
21096;BME280;10706;49.036;12.112;2023-03-23T01:33:38;97175.59;;;8.07;84.74
21096;BME280;10706;49.036;12.112;2023-03-23T01:36:13;97179.03;;;8.08;85.31
21096;BME280;10706;49.036;12.112;2023-03-23T01:38:41;97176.63;;;8.06;85.04
21096;BME280;10706;49.036;12.112;2023-03-23T01:41:07;97178.69;;;8.04;86.02
21096;BME280;10706;49.036;12.112;2023-03-23T01:43:33;97174.06;;;8.11;85.69
21096;BME280;10706;49.036;12.112;2023-03-23T01:45:59;97163.56;;;8.16;85.13
21096;BME280;10706;49.036;12.112;2023-03-23T01:48:33;97163.78;;;8.03;86.52
21096;BME280;10706;49.036;12.112;2023-03-23T01:51:12;97161.94;;;8.04;85.56
21096;BME280;10706;49.036;12.112;2023-03-23T01:53:45;97170.84;;;7.97;86.33
21096;BME280;10706;49.036;12.112;2023-03-23T01:56:16;97165.06;;;7.89;85.69
21096;BME280;10706;49.036;12.112;2023-03-23T01:58:44;97159.75;;;7.89;86.57
21096;BME280;10706;49.036;12.112;2023-03-23T02:01:13;97153.72;;;7.93;86.37
21096;BME280;10706;49.036;12.112;2023-03-23T02:03:43;97155.47;;;7.88;86.03
21096;BME280;10706;49.036;12.112;2023-03-23T02:06:11;97149.69;;;7.91;86.02
21096;BME280;10706;49.036;12.112;2023-03-23T02:08:38;97155.69;;;7.86;86.72
21096;BME280;10706;49.036;12.112;2023-03-23T02:11:15;97166.81;;;7.83;87.10
21096;BME280;10706;49.036;12.112;2023-03-23T02:13:42;97170.72;;;7.81;85.68
21096;BME280;10706;49.036;12.112;2023-03-23T02:28:24;97173.28;;;7.75;86.90
21096;BME280;10706;49.036;12.112;2023-03-23T02:31:12;97172.94;;;7.84;87.41
21096;BME280;10706;49.036;12.112;2023-03-23T02:34:02;97177.44;;;7.83;87.34
21096;BME280;10706;49.036;12.112;2023-03-23T02:37:01;97176.28;;;7.79;86.43
21096;BME280;10706;49.036;12.112;2023-03-23T02:39:50;97166.34;;;7.74;87.02
21096;BME280;10706;49.036;12.112;2023-03-23T02:42:22;97166.25;;;7.81;87.28
21096;BME280;10706;49.036;12.112;2023-03-23T02:44:52;97169.91;;;7.80;87.99
21096;BME280;10706;49.036;12.112;2023-03-23T02:47:25;97174.22;;;7.81;87.00
21096;BME280;10706;49.036;12.112;2023-03-23T02:49:55;97174.31;;;7.86;87.31
21096;BME280;10706;49.036;12.112;2023-03-23T02:52:27;97163.22;;;7.89;86.90
21096;BME280;10706;49.036;12.112;2023-03-23T02:54:56;97179.97;;;7.90;87.42
21096;BME280;10706;49.036;12.112;2023-03-23T02:57:24;97170.63;;;7.87;85.86
21096;BME280;10706;49.036;12.112;2023-03-23T02:59:51;97162.41;;;7.89;86.17
21096;BME280;10706;49.036;12.112;2023-03-23T03:02:25;97170.16;;;7.90;85.96
21096;BME280;10706;49.036;12.112;2023-03-23T03:05:15;97166.00;;;7.94;86.08
21096;BME280;10706;49.036;12.112;2023-03-23T03:08:22;97166.00;;;7.94;86.75
21096;BME280;10706;49.036;12.112;2023-03-23T03:19:17;97169.22;;;8.08;85.41
21096;BME280;10706;49.036;12.112;2023-03-23T03:21:47;97175.59;;;8.07;85.75
21096;BME280;10706;49.036;12.112;2023-03-23T03:24:18;97174.31;;;8.10;85.63
21096;BME280;10706;49.036;12.112;2023-03-23T03:26:48;97176.38;;;8.20;85.21
21096;BME280;10706;49.036;12.112;2023-03-23T03:29:23;97178.81;;;8.09;83.98
21096;BME280;10706;49.036;12.112;2023-03-23T03:31:52;97173.50;;;8.09;84.41
21096;BME280;10706;49.036;12.112;2023-03-23T03:34:21;97179.84;;;8.08;85.94
21096;BME280;10706;49.036;12.112;2023-03-23T03:36:49;97183.19;;;8.15;85.28
21096;BME280;10706;49.036;12.112;2023-03-23T03:39:17;97175.81;;;8.06;85.31
21096;BME280;10706;49.036;12.112;2023-03-23T03:41:46;97186.91;;;8.03;85.97
21096;BME280;10706;49.036;12.112;2023-03-23T03:44:12;97187.03;;;8.08;84.85
21096;BME280;10706;49.036;12.112;2023-03-23T03:46:38;97181.56;;;8.14;85.16
21096;BME280;10706;49.036;12.112;2023-03-23T03:49:06;97172.94;;;8.07;85.95
21096;BME280;10706;49.036;12.112;2023-03-23T03:51:34;97179.16;;;8.01;85.59
21096;BME280;10706;49.036;12.112;2023-03-23T03:54:00;97171.44;;;8.00;86.46
21096;BME280;10706;49.036;12.112;2023-03-23T03:56:26;97173.84;;;8.13;86.17
21096;BME280;10706;49.036;12.112;2023-03-23T03:58:52;97163.78;;;8.03;86.73
21096;BME280;10706;49.036;12.112;2023-03-23T04:01:21;97168.19;;;8.09;86.75
21096;BME280;10706;49.036;12.112;2023-03-23T04:03:48;97170.72;;;8.04;86.85
21096;BME280;10706;49.036;12.112;2023-03-23T04:06:15;97169.78;;;8.10;85.54
21096;BME280;10706;49.036;12.112;2023-03-23T04:08:41;97173.38;;;8.16;85.83
21096;BME280;10706;49.036;12.112;2023-03-23T04:11:09;97178.34;;;8.12;86.30
21096;BME280;10706;49.036;12.112;2023-03-23T04:13:36;97168.63;;;8.06;85.71
21096;BME280;10706;49.036;12.112;2023-03-23T04:16:02;97173.16;;;8.06;86.53
21096;BME280;10706;49.036;12.112;2023-03-23T04:18:29;97172.81;;;8.02;86.29
21096;BME280;10706;49.036;12.112;2023-03-23T04:20:54;97175.84;;;7.94;87.04
21096;BME280;10706;49.036;12.112;2023-03-23T04:23:26;97180.81;;;7.90;86.48
21096;BME280;10706;49.036;12.112;2023-03-23T04:25:53;97185.28;;;7.90;87.26
21096;BME280;10706;49.036;12.112;2023-03-23T04:28:23;97181.72;;;7.96;86.90
21096;BME280;10706;49.036;12.112;2023-03-23T04:30:51;97165.50;;;7.97;86.41
21096;BME280;10706;49.036;12.112;2023-03-23T04:33:25;97157.34;;;7.87;86.91
21096;BME280;10706;49.036;12.112;2023-03-23T04:35:53;97151.09;;;7.82;87.50
21096;BME280;10706;49.036;12.112;2023-03-23T04:38:21;97162.16;;;7.78;87.48
21096;BME280;10706;49.036;12.112;2023-03-23T04:40:48;97164.25;;;7.76;87.42
21096;BME280;10706;49.036;12.112;2023-03-23T04:43:18;97164.03;;;7.78;87.12
21096;BME280;10706;49.036;12.112;2023-03-23T04:45:52;97158.84;;;7.83;86.56
21096;BME280;10706;49.036;12.112;2023-03-23T04:48:25;97155.69;;;7.86;87.12
21096;BME280;10706;49.036;12.112;2023-03-23T04:50:53;97165.06;;;7.77;87.71
21096;BME280;10706;49.036;12.112;2023-03-23T04:53:19;97156.16;;;7.71;87.36
21096;BME280;10706;49.036;12.112;2023-03-23T04:55:46;97156.28;;;7.76;87.08
21096;BME280;10706;49.036;12.112;2023-03-23T04:58:13;97156.28;;;7.76;87.19
21096;BME280;10706;49.036;12.112;2023-03-23T05:00:40;97157.34;;;7.75;88.42
21096;BME280;10706;49.036;12.112;2023-03-23T05:03:06;97169.13;;;7.68;87.43
21096;BME280;10706;49.036;12.112;2023-03-23T05:05:34;97175.25;;;7.68;87.71
21096;BME280;10706;49.036;12.112;2023-03-23T05:08:00;97171.31;;;7.71;89.11
21096;BME280;10706;49.036;12.112;2023-03-23T05:10:25;97161.59;;;7.76;88.80
21096;BME280;10706;49.036;12.112;2023-03-23T05:12:53;97166.47;;;7.68;89.29
21096;BME280;10706;49.036;12.112;2023-03-23T05:15:20;97169.69;;;7.70;88.69
21096;BME280;10706;49.036;12.112;2023-03-23T05:17:46;97171.06;;;7.72;88.76
21096;BME280;10706;49.036;12.112;2023-03-23T05:20:14;97174.66;;;7.66;88.43
21096;BME280;10706;49.036;12.112;2023-03-23T05:22:43;97178.59;;;7.75;87.73
21096;BME280;10706;49.036;12.112;2023-03-23T05:25:10;97181.34;;;7.81;87.24
21096;BME280;10706;49.036;12.112;2023-03-23T05:27:37;97177.19;;;7.73;87.57
21096;BME280;10706;49.036;12.112;2023-03-23T05:30:05;97178.25;;;7.72;86.43
21096;BME280;10706;49.036;12.112;2023-03-23T05:32:32;97180.91;;;7.84;85.90
21096;BME280;10706;49.036;12.112;2023-03-23T05:35:01;97184.13;;;7.86;86.73
21096;BME280;10706;49.036;12.112;2023-03-23T05:37:29;97174.53;;;7.73;87.67
21096;BME280;10706;49.036;12.112;2023-03-23T05:39:58;97179.84;;;7.61;87.51
21096;BME280;10706;49.036;12.112;2023-03-23T05:42:33;97170.72;;;7.57;88.29
21096;BME280;10706;49.036;12.112;2023-03-23T05:45:01;97165.41;;;7.69;88.53
21096;BME280;10706;49.036;12.112;2023-03-23T05:47:27;97178.47;;;7.58;88.62
21096;BME280;10706;49.036;12.112;2023-03-23T05:49:53;97170.59;;;7.64;88.16
21096;BME280;10706;49.036;12.112;2023-03-23T05:52:19;97169.22;;;7.61;89.11
21096;BME280;10706;49.036;12.112;2023-03-23T05:54:46;97170.50;;;7.70;88.11
21096;BME280;10706;49.036;12.112;2023-03-23T05:57:12;97162.66;;;7.75;87.99
21096;BME280;10706;49.036;12.112;2023-03-23T05:59:38;97170.06;;;7.73;88.93
21096;BME280;10706;49.036;12.112;2023-03-23T06:02:04;97170.28;;;7.84;88.69
21096;BME280;10706;49.036;12.112;2023-03-23T06:04:30;97157.34;;;7.87;88.67
21096;BME280;10706;49.036;12.112;2023-03-23T06:07:01;97158.69;;;7.90;87.87
21096;BME280;10706;49.036;12.112;2023-03-23T06:09:28;97157.44;;;7.81;89.15
21096;BME280;10706;49.036;12.112;2023-03-23T06:11:54;97157.44;;;7.92;87.83
21096;BME280;10706;49.036;12.112;2023-03-23T06:14:20;97156.06;;;8.02;87.90
21096;BME280;10706;49.036;12.112;2023-03-23T06:16:46;97160.88;;;8.05;87.25
21096;BME280;10706;49.036;12.112;2023-03-23T06:19:12;97163.66;;;8.10;87.72
21096;BME280;10706;49.036;12.112;2023-03-23T06:21:38;97159.59;;;8.19;85.85
21096;BME280;10706;49.036;12.112;2023-03-23T06:24:04;97154.81;;;8.33;86.20
21096;BME280;10706;49.036;12.112;2023-03-23T06:26:34;97152.16;;;8.33;86.31
21096;BME280;10706;49.036;12.112;2023-03-23T06:29:00;97156.69;;;8.32;86.58
21096;BME280;10706;49.036;12.112;2023-03-23T06:31:27;97151.19;;;8.63;85.22
21096;BME280;10706;49.036;12.112;2023-03-23T06:33:53;97150.38;;;8.62;84.67
21096;BME280;10706;49.036;12.112;2023-03-23T06:36:19;97146.06;;;8.73;84.30
21096;BME280;10706;49.036;12.112;2023-03-23T06:38:45;97148.63;;;8.97;82.22
21096;BME280;10706;49.036;12.112;2023-03-23T06:41:12;97153.78;;;8.86;82.80
21096;BME280;10706;49.036;12.112;2023-03-23T06:43:38;97146.84;;;9.02;83.16
21096;BME280;10706;49.036;12.112;2023-03-23T06:46:06;97148.53;;;8.91;81.85
21096;BME280;10706;49.036;12.112;2023-03-23T06:48:32;97142.31;;;9.03;82.32
21096;BME280;10706;49.036;12.112;2023-03-23T06:50:58;97149.38;;;9.09;80.53
21096;BME280;10706;49.036;12.112;2023-03-23T06:53:24;97153.41;;;9.11;80.72
21096;BME280;10706;49.036;12.112;2023-03-23T06:55:50;97151.16;;;9.20;79.79
21096;BME280;10706;49.036;12.112;2023-03-23T06:58:16;97157.94;;;9.28;79.99
21096;BME280;10706;49.036;12.112;2023-03-23T07:00:42;97149.50;;;9.31;80.38
21096;BME280;10706;49.036;12.112;2023-03-23T07:03:08;97148.19;;;9.50;79.42
21096;BME280;10706;49.036;12.112;2023-03-23T07:05:34;97147.53;;;9.60;79.70
21096;BME280;10706;49.036;12.112;2023-03-23T07:08:03;97162.94;;;9.75;76.83
21096;BME280;10706;49.036;12.112;2023-03-23T07:10:29;97154.41;;;9.56;77.75
21096;BME280;10706;49.036;12.112;2023-03-23T07:12:55;97150.53;;;9.64;79.43
21096;BME280;10706;49.036;12.112;2023-03-23T07:15:21;97152.78;;;9.55;78.76
21096;BME280;10706;49.036;12.112;2023-03-23T07:17:47;97156.75;;;9.52;78.91
21096;BME280;10706;49.036;12.112;2023-03-23T07:20:13;97163.44;;;9.55;78.86
21096;BME280;10706;49.036;12.112;2023-03-23T07:22:40;97164.72;;;9.69;77.20
21096;BME280;10706;49.036;12.112;2023-03-23T07:25:07;97155.94;;;9.69;78.37
21096;BME280;10706;49.036;12.112;2023-03-23T07:27:33;97151.25;;;9.76;77.48
21096;BME280;10706;49.036;12.112;2023-03-23T07:29:59;97153.97;;;9.81;78.75
21096;BME280;10706;49.036;12.112;2023-03-23T07:32:25;97150.38;;;9.70;78.03
21096;BME280;10706;49.036;12.112;2023-03-23T07:34:51;97157.06;;;9.73;77.74
21096;BME280;10706;49.036;12.112;2023-03-23T07:37:17;97161.50;;;9.84;78.36
21096;BME280;10706;49.036;12.112;2023-03-23T07:39:43;97166.03;;;9.84;77.41
21096;BME280;10706;49.036;12.112;2023-03-23T07:42:09;97168.13;;;9.82;78.57
21096;BME280;10706;49.036;12.112;2023-03-23T07:44:35;97162.50;;;10.00;77.72
21096;BME280;10706;49.036;12.112;2023-03-23T07:47:01;97159.72;;;9.90;77.29
21096;BME280;10706;49.036;12.112;2023-03-23T07:49:28;97165.56;;;10.09;77.44
21096;BME280;10706;49.036;12.112;2023-03-23T07:51:56;97163.34;;;10.23;76.53
21096;BME280;10706;49.036;12.112;2023-03-23T07:54:24;97172.97;;;10.24;76.45
21096;BME280;10706;49.036;12.112;2023-03-23T07:56:50;97165.81;;;10.46;75.96
21096;BME280;10706;49.036;12.112;2023-03-23T07:59:16;97175.94;;;10.44;75.39
21096;BME280;10706;49.036;12.112;2023-03-23T08:01:42;97169.09;;;10.54;76.27
21096;BME280;10706;49.036;12.112;2023-03-23T08:04:08;97177.84;;;10.49;75.96
21096;BME280;10706;49.036;12.112;2023-03-23T08:06:35;97177.84;;;10.49;75.87
21096;BME280;10706;49.036;12.112;2023-03-23T08:09:01;97182.22;;;10.55;75.44
21096;BME280;10706;49.036;12.112;2023-03-23T08:11:32;97185.25;;;10.42;75.76
21096;BME280;10706;49.036;12.112;2023-03-23T08:13:58;97180.19;;;10.45;76.12
21096;BME280;10706;49.036;12.112;2023-03-23T08:16:24;97183.44;;;10.47;75.20
21096;BME280;10706;49.036;12.112;2023-03-23T08:18:51;97190.78;;;10.57;74.62
21096;BME280;10706;49.036;12.112;2023-03-23T08:21:17;97194.66;;;10.72;75.29
21096;BME280;10706;49.036;12.112;2023-03-23T08:23:43;97196.47;;;10.66;75.13
21096;BME280;10706;49.036;12.112;2023-03-23T08:26:10;97204.53;;;10.71;75.00
21096;BME280;10706;49.036;12.112;2023-03-23T08:28:36;97203.75;;;10.70;75.13
21096;BME280;10706;49.036;12.112;2023-03-23T08:31:11;97207.03;;;10.78;75.04
21096;BME280;10706;49.036;12.112;2023-03-23T08:33:39;97201.72;;;11.05;74.36
21096;BME280;10706;49.036;12.112;2023-03-23T08:36:05;97200.75;;;11.16;73.93
21096;BME280;10706;49.036;12.112;2023-03-23T08:38:31;97189.66;;;11.29;74.02
21096;BME280;10706;49.036;12.112;2023-03-23T08:41:04;97192.50;;;11.45;72.72
21096;BME280;10706;49.036;12.112;2023-03-23T08:43:33;97191.41;;;11.78;71.29
21096;BME280;10706;49.036;12.112;2023-03-23T08:46:00;97199.41;;;11.73;72.70
21096;BME280;10706;49.036;12.112;2023-03-23T08:48:27;97198.56;;;11.67;72.46
21096;BME280;10706;49.036;12.112;2023-03-23T08:50:53;97201.09;;;11.52;72.11
21096;BME280;10706;49.036;12.112;2023-03-23T08:53:19;97200.13;;;11.63;71.98
21096;BME280;10706;49.036;12.112;2023-03-23T08:55:47;97206.06;;;11.71;71.69
21096;BME280;10706;49.036;12.112;2023-03-23T08:58:13;97204.38;;;11.92;71.11
21096;BME280;10706;49.036;12.112;2023-03-23T09:00:39;97210.72;;;11.85;71.57
21096;BME280;10706;49.036;12.112;2023-03-23T09:03:05;97210.09;;;12.05;72.09
21096;BME280;10706;49.036;12.112;2023-03-23T09:05:31;97210.06;;;12.43;70.54
21096;BME280;10706;49.036;12.112;2023-03-23T09:07:58;97203.88;;;12.42;69.73
21096;BME280;10706;49.036;12.112;2023-03-23T09:10:28;97213.66;;;12.69;69.16
21096;BME280;10706;49.036;12.112;2023-03-23T09:12:55;97215.47;;;12.58;69.26
21096;BME280;10706;49.036;12.112;2023-03-23T09:15:22;97218.53;;;12.82;68.97
21096;BME280;10706;49.036;12.112;2023-03-23T09:17:51;97223.31;;;12.75;68.17
21096;BME280;10706;49.036;12.112;2023-03-23T09:20:21;97229.06;;;13.10;66.71
21096;BME280;10706;49.036;12.112;2023-03-23T09:22:51;97214.38;;;13.28;67.22
21096;BME280;10706;49.036;12.112;2023-03-23T09:25:22;97221.78;;;12.95;66.96
21096;BME280;10706;49.036;12.112;2023-03-23T09:27:53;97221.22;;;12.93;67.80
21096;BME280;10706;49.036;12.112;2023-03-23T09:30:30;97210.91;;;13.32;66.99
21096;BME280;10706;49.036;12.112;2023-03-23T09:32:57;97222.91;;;13.09;66.15
21096;BME280;10706;49.036;12.112;2023-03-23T09:35:23;97206.03;;;13.24;68.17
21096;BME280;10706;49.036;12.112;2023-03-23T09:37:51;97213.53;;;13.17;66.63
21096;BME280;10706;49.036;12.112;2023-03-23T09:40:24;97197.44;;;13.07;67.64
21096;BME280;10706;49.036;12.112;2023-03-23T09:43:33;97203.69;;;13.38;66.34
21096;BME280;10706;49.036;12.112;2023-03-23T09:49:39;97219.53;;;13.75;64.91
21096;BME280;10706;49.036;12.112;2023-03-23T09:52:16;97217.66;;;13.50;66.20
21096;BME280;10706;49.036;12.112;2023-03-23T09:54:46;97219.00;;;13.63;65.67
21096;BME280;10706;49.036;12.112;2023-03-23T10:00:06;97219.16;;;13.15;66.48
21096;BME280;10706;49.036;12.112;2023-03-23T10:03:06;97220.53;;;13.18;66.48
21096;BME280;10706;49.036;12.112;2023-03-23T10:05:45;97223.25;;;13.44;67.11
21096;BME280;10706;49.036;12.112;2023-03-23T10:08:29;97221.41;;;13.70;67.51
21096;BME280;10706;49.036;12.112;2023-03-23T10:11:02;97226.53;;;13.82;66.77
21096;BME280;10706;49.036;12.112;2023-03-23T10:14:07;97227.56;;;14.01;65.86
21096;BME280;10706;49.036;12.112;2023-03-23T10:16:55;97211.22;;;13.67;67.20
21096;BME280;10706;49.036;12.112;2023-03-23T10:19:35;97216.56;;;13.72;67.04
21096;BME280;10706;49.036;12.112;2023-03-23T10:22:09;97215.25;;;13.59;66.58
21096;BME280;10706;49.036;12.112;2023-03-23T10:30:41;97217.91;;;14.00;65.58
21096;BME280;10706;49.036;12.112;2023-03-23T10:33:22;97210.38;;;14.17;64.65
21096;BME280;10706;49.036;12.112;2023-03-23T10:36:04;97205.47;;;14.50;64.16
21096;BME280;10706;49.036;12.112;2023-03-23T10:38:47;97217.44;;;14.89;63.43
21096;BME280;10706;49.036;12.112;2023-03-23T10:41:17;97213.59;;;15.05;62.16
21096;BME280;10706;49.036;12.112;2023-03-23T10:43:45;97211.47;;;14.97;60.81
21096;BME280;10706;49.036;12.112;2023-03-23T10:49:20;97204.94;;;15.13;61.14
21096;BME280;10706;49.036;12.112;2023-03-23T10:54:45;97203.88;;;15.54;59.99
21096;BME280;10706;49.036;12.112;2023-03-23T10:57:28;97200.13;;;15.89;58.76
21096;BME280;10706;49.036;12.112;2023-03-23T11:02:43;97210.88;;;16.24;57.40
21096;BME280;10706;49.036;12.112;2023-03-23T11:05:20;97199.34;;;16.66;58.24
21096;BME280;10706;49.036;12.112;2023-03-23T11:07:57;97197.16;;;16.93;56.22
21096;BME280;10706;49.036;12.112;2023-03-23T11:10:39;97201.53;;;16.88;54.47
21096;BME280;10706;49.036;12.112;2023-03-23T11:13:16;97194.41;;;17.17;55.56
21096;BME280;10706;49.036;12.112;2023-03-23T11:15:44;97196.09;;;17.13;54.93
21096;BME280;10706;49.036;12.112;2023-03-23T11:18:37;97192.88;;;16.92;54.59
21096;BME280;10706;49.036;12.112;2023-03-23T11:21:06;97184.88;;;16.81;55.67
21096;BME280;10706;49.036;12.112;2023-03-23T11:23:34;97189.91;;;16.93;54.91
21096;BME280;10706;49.036;12.112;2023-03-23T11:28:53;97198.66;;;17.42;52.92
21096;BME280;10706;49.036;12.112;2023-03-23T11:31:33;97194.50;;;17.49;51.07
21096;BME280;10706;49.036;12.112;2023-03-23T11:34:29;97206.53;;;18.23;50.15
21096;BME280;10706;49.036;12.112;2023-03-23T11:36:55;97191.03;;;17.63;47.30
21096;BME280;10706;49.036;12.112;2023-03-23T11:42:48;97203.69;;;17.48;46.36
21096;BME280;10706;49.036;12.112;2023-03-23T11:45:32;97206.38;;;17.48;47.09
21096;BME280;10706;49.036;12.112;2023-03-23T11:53:57;97190.28;;;17.76;45.74
21096;BME280;10706;49.036;12.112;2023-03-23T11:56:29;97188.50;;;17.53;45.68
21096;BME280;10706;49.036;12.112;2023-03-23T11:58:57;97185.59;;;17.30;46.35
21096;BME280;10706;49.036;12.112;2023-03-23T12:13:16;97187.63;;;17.57;45.80
21096;BME280;10706;49.036;12.112;2023-03-23T12:19:01;97198.19;;;17.54;46.89
21096;BME280;10706;49.036;12.112;2023-03-23T12:31:39;97191.38;;;17.04;47.87
21096;BME280;10706;49.036;12.112;2023-03-23T12:37:59;97204.47;;;17.11;48.29
21096;BME280;10706;49.036;12.112;2023-03-23T12:43:52;97196.16;;;17.07;48.82
21096;BME280;10706;49.036;12.112;2023-03-23T12:49:45;97198.31;;;16.86;48.89
21096;BME280;10706;49.036;12.112;2023-03-23T12:52:38;97197.69;;;16.70;48.67
21096;BME280;10706;49.036;12.112;2023-03-23T12:55:42;97187.41;;;16.73;49.76
21096;BME280;10706;49.036;12.112;2023-03-23T12:58:25;97190.03;;;16.78;49.24
21096;BME280;10706;49.036;12.112;2023-03-23T13:01:05;97191.84;;;16.87;49.78
21096;BME280;10706;49.036;12.112;2023-03-23T13:03:54;97180.97;;;16.68;49.75
21096;BME280;10706;49.036;12.112;2023-03-23T13:09:22;97182.59;;;16.69;49.57
21096;BME280;10706;49.036;12.112;2023-03-23T13:11:51;97176.53;;;16.83;49.95
21096;BME280;10706;49.036;12.112;2023-03-23T13:17:07;97187.06;;;16.79;50.57
21096;BME280;10706;49.036;12.112;2023-03-23T13:19:59;97173.44;;;16.70;50.00
21096;BME280;10706;49.036;12.112;2023-03-23T13:22:56;97178.75;;;16.76;51.17
21096;BME280;10706;49.036;12.112;2023-03-23T13:25:44;97176.47;;;16.88;51.29
21096;BME280;10706;49.036;12.112;2023-03-23T13:28:17;97183.91;;;16.96;52.51
21096;BME280;10706;49.036;12.112;2023-03-23T13:34:04;97171.66;;;16.80;52.00
21096;BME280;10706;49.036;12.112;2023-03-23T13:36:39;97176.41;;;16.93;51.62
21096;BME280;10706;49.036;12.112;2023-03-23T13:39:28;97177.50;;;16.92;52.00
21096;BME280;10706;49.036;12.112;2023-03-23T13:42:04;97174.50;;;16.94;51.93
21096;BME280;10706;49.036;12.112;2023-03-23T13:50:00;97161.81;;;17.13;50.90
21096;BME280;10706;49.036;12.112;2023-03-23T14:03:25;97164.09;;;17.25;48.71
21096;BME280;10706;49.036;12.112;2023-03-23T14:11:17;97160.44;;;17.16;49.11
21096;BME280;10706;49.036;12.112;2023-03-23T14:14:04;97161.16;;;17.02;48.69
21096;BME280;10706;49.036;12.112;2023-03-23T14:16:44;97154.91;;;16.88;49.17
21096;BME280;10706;49.036;12.112;2023-03-23T14:19:29;97164.78;;;16.93;49.17
21096;BME280;10706;49.036;12.112;2023-03-23T14:22:01;97157.88;;;16.86;49.70
21096;BME280;10706;49.036;12.112;2023-03-23T14:24:33;97155.75;;;16.83;49.79
21096;BME280;10706;49.036;12.112;2023-03-23T14:27:19;97159.13;;;16.70;50.16
21096;BME280;10706;49.036;12.112;2023-03-23T14:29:45;97151.56;;;16.72;49.78
21096;BME280;10706;49.036;12.112;2023-03-23T14:32:16;97153.00;;;16.64;49.98
21096;BME280;10706;49.036;12.112;2023-03-23T14:34:46;97153.81;;;16.65;50.21
21096;BME280;10706;49.036;12.112;2023-03-23T14:37:14;97157.00;;;16.48;50.60
21096;BME280;10706;49.036;12.112;2023-03-23T14:39:46;97151.06;;;16.46;50.45
21096;BME280;10706;49.036;12.112;2023-03-23T14:42:36;97154.81;;;16.50;50.87
21096;BME280;10706;49.036;12.112;2023-03-23T14:45:04;97151.53;;;16.53;51.30
21096;BME280;10706;49.036;12.112;2023-03-23T14:47:34;97148.25;;;16.56;51.05
21096;BME280;10706;49.036;12.112;2023-03-23T14:50:04;97148.38;;;16.46;50.95
21096;BME280;10706;49.036;12.112;2023-03-23T14:52:36;97145.16;;;16.44;51.13
21096;BME280;10706;49.036;12.112;2023-03-23T14:55:21;97144.88;;;16.45;51.28
21096;BME280;10706;49.036;12.112;2023-03-23T14:57:48;97149.97;;;16.47;51.51
21096;BME280;10706;49.036;12.112;2023-03-23T15:00:29;97145.09;;;16.49;51.53
21096;BME280;10706;49.036;12.112;2023-03-23T15:03:00;97141.34;;;16.50;52.32
21096;BME280;10706;49.036;12.112;2023-03-23T15:05:36;97150.91;;;16.61;51.50
21096;BME280;10706;49.036;12.112;2023-03-23T15:08:08;97152.44;;;16.43;51.49
21096;BME280;10706;49.036;12.112;2023-03-23T15:10:36;97142.22;;;16.40;51.75
21096;BME280;10706;49.036;12.112;2023-03-23T15:13:02;97135.78;;;16.41;51.42
21096;BME280;10706;49.036;12.112;2023-03-23T15:15:34;97147.84;;;16.44;52.17